Mapleton, Kansas
Current Conditions -  °F | °C
As of 10:35 AM on Friday 31 Oct 2014 (Local Time) from KPTS Reporting Station
Scattered Clouds Scattered Clouds  
Wind Chill: 36°   Ceiling: Unl
Heat Index: 43°   Visibility: 10mi
Dew Point: 31°   Wind: 15mph
Humidity: 63%   Direction: 20°NNE
Pressure: 30.42"   Gusts: 22mph
Location:  38.02°N, 94.88°W
Report Text: KPTS 311535Z AUTO 02013G19KT 10SM SCT027 06/00 A3042 RMK AO2 T00621004
Loading
Personal Weather Stations






























Interactive Weather Map
Tropical Storm Tracking
New forecast layout! Learn more

10-Day Weather Forecast

Advertisements
Track Severe Weather on mobile